»·PEaware :: N475RS KPDX-KSEA

N475RS :: KPDX-KSEA

FLIGHT INFORMATION

Flight Status: Arrived
Operator: Privately registered:
United States
More flights under this callsign
Pilot: Aker J. (16898)
Aircraft: BOMBARDIER BD-100 CHALLENGER 300
(CL30)
More flights by this aircraft type
Origin: KPDX Portland Intl
United States
Destination: KSEA Seattle-Tacoma Intl
United States
More flights between these airports :: More routes between these airports
Route: +COUGA KRIEG HAWKZ6
File this flight plan on PilotEdge
Remarks: Sample flight plan
Altitude:
(Current/Filed)
26,000ft
Speed:
(Current/Filed)
300kts
Departed: 09-Dec-17 04:24 PM
Arrived: 09-Dec-17 05:00 PM
Distance/Time
Traveled:
112nm/0:36
Distance/Time
To Go:
Arrived

Flight Plot

Page will automatically refresh every two minutes.

Flight plan parsing failed; only flown route is shown


Map Options




Map Legend


Flown Route
Filed Route
Departure Airport
Arrival Airport
Navaid (VOR, NDB)
Fix

Horizontal Profiles

Position Reports

Time Latitude Longitude Heading Altitude Ground
Speed
09-Dec-17 16:09 45.586940 -122.593094 41 23ft 0kts
09-Dec-17 16:10 45.586940 -122.593094 41 23ft 0kts
09-Dec-17 16:11 45.586940 -122.593094 41 23ft 0kts
09-Dec-17 16:12 45.585560 -122.578211 299 23ft 0kts
09-Dec-17 16:13 45.585560 -122.578211 299 23ft 0kts
09-Dec-17 16:14 45.585560 -122.578211 299 23ft 0kts
09-Dec-17 16:15 45.585560 -122.578211 299 23ft 0kts
09-Dec-17 16:16 45.585560 -122.578211 299 23ft 0kts
09-Dec-17 16:17 45.585560 -122.578211 299 23ft 0kts
09-Dec-17 16:18 45.585560 -122.578211 299 23ft 0kts
09-Dec-17 16:19 45.585560 -122.578211 299 23ft 0kts
09-Dec-17 16:20 45.585560 -122.578211 299 23ft 0kts
09-Dec-17 16:21 45.585560 -122.578211 299 23ft 0kts
09-Dec-17 16:22 45.585603 -122.577064 58 23ft 0kts
09-Dec-17 16:23 45.587284 -122.579585 298 23ft 23kts
09-Dec-17 16:24 45.588933 -122.583829 298 23ft 3kts
09-Dec-17 16:26 45.589610 -122.587956 293 23ft 7kts
09-Dec-17 16:27 45.590768 -122.590679 298 23ft 24kts
09-Dec-17 16:28 45.595252 -122.600803 18 26ft 0kts
09-Dec-17 16:29 45.595252 -122.600803 18 26ft 0kts
09-Dec-17 16:30 45.593849 -122.593164 119 23ft 81kts
09-Dec-17 16:31 45.580728 -122.559766 121 788ft 135kts
09-Dec-17 16:32 45.562764 -122.513935 119 3074ft 141kts
09-Dec-17 16:33 45.556153 -122.467983 44 5580ft 147kts
09-Dec-17 16:34 45.594611 -122.489839 321 8627ft 216kts
09-Dec-17 16:35 45.647589 -122.545800 322 11543ft 307kts
09-Dec-17 16:36 45.722412 -122.596574 341 14399ft 308kts
09-Dec-17 16:37 45.812553 -122.625818 348 17382ft 385kts
09-Dec-17 16:38 45.921736 -122.648372 351 20347ft 404kts
09-Dec-17 16:39 46.025057 -122.666140 350 21972ft 383kts
09-Dec-17 16:40 46.127390 -122.684282 349 21966ft 396kts
09-Dec-17 16:41 46.236516 -122.705745 349 21966ft 411kts
09-Dec-17 16:42 46.349138 -122.722286 355 21963ft 409kts
09-Dec-17 16:43 46.458411 -122.726936 356 21955ft 403kts
09-Dec-17 16:44 46.566588 -122.730997 356 21397ft 387kts
09-Dec-17 16:45 46.668063 -122.734726 356 19560ft 367kts
09-Dec-17 16:46 46.763239 -122.737197 5 17588ft 344kts
09-Dec-17 16:47 46.839879 -122.670409 23 15696ft 341kts
09-Dec-17 16:48 46.887547 -122.643968 10 14642ft 345kts
09-Dec-17 16:49 46.958974 -122.673296 2 12845ft 304kts
09-Dec-17 16:50 46.987461 -122.590505 132 11985ft 260kts
09-Dec-17 16:51 46.929111 -122.566050 141 11498ft 237kts
09-Dec-17 16:52 46.941051 -122.497034 31 10156ft 234kts
09-Dec-17 16:53 46.993823 -122.447799 21 8585ft 222kts
09-Dec-17 16:54 47.046368 -122.409259 24 7005ft 208kts
09-Dec-17 16:55 47.091559 -122.373539 25 5961ft 165kts
09-Dec-17 16:56 47.125744 -122.345058 26 6002ft 148kts
09-Dec-17 16:57 47.158143 -122.319945 18 5672ft 120kts
09-Dec-17 16:58 47.193705 -122.313539 359 5232ft 131kts
09-Dec-17 16:59 47.227792 -122.313000 0 4541ft 122kts
09-Dec-17 17:00 47.261023 -122.312610 0 3893ft 123kts
09-Dec-17 17:01 47.292460 -122.312317 2 3265ft 125kts
09-Dec-17 17:03 47.363793 -122.311705 1 1856ft 132kts
09-Dec-17 17:04 47.398153 -122.311508 1 1179ft 126kts
09-Dec-17 17:05 47.432079 -122.311393 0 518ft 113kts
09-Dec-17 17:06 47.451856 -122.311087 3 414ft 32kts

Navigation Log

Ident Type
Flight plan parsing failed, navigation log unavailable